sensor_id;sensor_type;location;lat;lon;timestamp;pressure;altitude;pressure_sealevel;temperature;humidity
55277;BME280;41136;51.478;-2.610;2023-02-04T00:00:20;102788.94;;;11.50;100.00
55277;BME280;41136;51.478;-2.610;2023-02-04T00:02:44;102793.25;;;10.95;100.00
55277;BME280;41136;51.478;-2.610;2023-02-04T00:05:10;102791.37;;;11.45;100.00
55277;BME280;41136;51.478;-2.610;2023-02-04T00:07:35;102792.66;;;11.10;100.00
55277;BME280;41136;51.478;-2.610;2023-02-04T00:10:00;102792.61;;;11.13;100.00
55277;BME280;41136;51.478;-2.610;2023-02-04T00:12:25;102793.49;;;10.80;100.00
55277;BME280;41136;51.478;-2.610;2023-02-04T00:14:51;102788.94;;;11.26;100.00
55277;BME280;41136;51.478;-2.610;2023-02-04T00:17:16;102787.70;;;11.21;100.00
55277;BME280;41136;51.478;-2.610;2023-02-04T00:19:41;102789.31;;;11.49;100.00
55277;BME280;41136;51.478;-2.610;2023-02-04T00:22:07;102788.94;;;11.39;100.00
55277;BME280;41136;51.478;-2.610;2023-02-04T00:24:32;102791.75;;;11.00;100.00
55277;BME280;41136;51.478;-2.610;2023-02-04T00:26:57;102794.16;;;11.33;100.00
55277;BME280;41136;51.478;-2.610;2023-02-04T00:29:23;102791.69;;;11.15;100.00
55277;BME280;41136;51.478;-2.610;2023-02-04T00:31:48;102798.01;;;10.56;100.00
55277;BME280;41136;51.478;-2.610;2023-02-04T00:34:13;102791.65;;;11.06;100.00
55277;BME280;41136;51.478;-2.610;2023-02-04T00:36:39;102793.72;;;11.20;100.00
55277;BME280;41136;51.478;-2.610;2023-02-04T00:39:04;102796.62;;;11.28;100.00
55277;BME280;41136;51.478;-2.610;2023-02-04T00:41:29;102792.98;;;11.05;100.00
55277;BME280;41136;51.478;-2.610;2023-02-04T00:43:55;102792.21;;;11.10;100.00
55277;BME280;41136;51.478;-2.610;2023-02-04T00:46:20;102787.67;;;11.42;100.00
55277;BME280;41136;51.478;-2.610;2023-02-04T00:48:45;102782.81;;;11.30;100.00
55277;BME280;41136;51.478;-2.610;2023-02-04T00:51:11;102787.51;;;11.05;100.00
55277;BME280;41136;51.478;-2.610;2023-02-04T00:53:36;102789.32;;;11.05;100.00
55277;BME280;41136;51.478;-2.610;2023-02-04T00:56:01;102792.86;;;11.79;100.00
55277;BME280;41136;51.478;-2.610;2023-02-04T00:58:27;102793.24;;;11.61;100.00
55277;BME280;41136;51.478;-2.610;2023-02-04T01:00:52;102794.07;;;11.65;100.00
55277;BME280;41136;51.478;-2.610;2023-02-04T01:03:17;102797.51;;;11.44;100.00
55277;BME280;41136;51.478;-2.610;2023-02-04T01:05:43;102799.53;;;11.21;100.00
55277;BME280;41136;51.478;-2.610;2023-02-04T01:08:08;102796.83;;;11.64;100.00
55277;BME280;41136;51.478;-2.610;2023-02-04T01:10:33;102799.74;;;11.87;100.00
55277;BME280;41136;51.478;-2.610;2023-02-04T01:12:59;102800.64;;;11.87;100.00
55277;BME280;41136;51.478;-2.610;2023-02-04T01:15:24;102797.71;;;11.81;100.00
55277;BME280;41136;51.478;-2.610;2023-02-04T01:17:49;102805.03;;;11.53;100.00
55277;BME280;41136;51.478;-2.610;2023-02-04T01:20:15;102804.22;;;11.65;100.00
55277;BME280;41136;51.478;-2.610;2023-02-04T01:22:40;102802.74;;;11.60;100.00
55277;BME280;41136;51.478;-2.610;2023-02-04T01:25:06;102805.26;;;12.11;100.00
55277;BME280;41136;51.478;-2.610;2023-02-04T01:29:56;102801.09;;;12.40;100.00
55277;BME280;41136;51.478;-2.610;2023-02-04T01:34:47;102803.20;;;11.96;100.00
55277;BME280;41136;51.478;-2.610;2023-02-04T01:37:12;102803.31;;;12.11;100.00
55277;BME280;41136;51.478;-2.610;2023-02-04T01:39:37;102806.37;;;12.00;100.00
55277;BME280;41136;51.478;-2.610;2023-02-04T01:42:03;102808.01;;;11.91;100.00
55277;BME280;41136;51.478;-2.610;2023-02-04T01:44:28;102811.96;;;11.72;100.00
55277;BME280;41136;51.478;-2.610;2023-02-04T01:46:54;102810.96;;;11.66;100.00
55277;BME280;41136;51.478;-2.610;2023-02-04T01:49:19;102815.01;;;11.11;100.00
55277;BME280;41136;51.478;-2.610;2023-02-04T01:51:44;102816.55;;;11.02;100.00
55277;BME280;41136;51.478;-2.610;2023-02-04T01:54:11;102817.24;;;11.49;100.00
55277;BME280;41136;51.478;-2.610;2023-02-04T01:56:35;102815.51;;;11.34;100.00
55277;BME280;41136;51.478;-2.610;2023-02-04T01:59:00;102818.45;;;10.74;100.00
55277;BME280;41136;51.478;-2.610;2023-02-04T02:01:33;102815.49;;;10.82;100.00
55277;BME280;41136;51.478;-2.610;2023-02-04T02:03:51;102815.71;;;11.17;100.00
55277;BME280;41136;51.478;-2.610;2023-02-04T02:06:16;102819.91;;;11.30;100.00
55277;BME280;41136;51.478;-2.610;2023-02-04T02:08:41;102817.71;;;11.53;100.00
55277;BME280;41136;51.478;-2.610;2023-02-04T02:11:07;102817.46;;;11.33;100.00
55277;BME280;41136;51.478;-2.610;2023-02-04T02:13:32;102823.30;;;10.86;100.00
55277;BME280;41136;51.478;-2.610;2023-02-04T02:15:57;102817.31;;;11.08;100.00
55277;BME280;41136;51.478;-2.610;2023-02-04T02:18:23;102820.74;;;10.59;100.00
55277;BME280;41136;51.478;-2.610;2023-02-04T02:20:48;102816.50;;;10.66;100.00
55277;BME280;41136;51.478;-2.610;2023-02-04T02:23:18;102816.40;;;10.54;100.00
55277;BME280;41136;51.478;-2.610;2023-02-04T02:25:39;102817.80;;;10.83;100.00
55277;BME280;41136;51.478;-2.610;2023-02-04T02:28:09;102817.59;;;11.16;100.00
55277;BME280;41136;51.478;-2.610;2023-02-04T02:30:29;102816.43;;;11.04;100.00
55277;BME280;41136;51.478;-2.610;2023-02-04T02:32:55;102814.81;;;11.23;100.00
55277;BME280;41136;51.478;-2.610;2023-02-04T02:35:20;102815.00;;;10.75;100.00
55277;BME280;41136;51.478;-2.610;2023-02-04T02:37:45;102815.31;;;10.49;100.00
55277;BME280;41136;51.478;-2.610;2023-02-04T02:40:12;102818.44;;;11.09;100.00
55277;BME280;41136;51.478;-2.610;2023-02-04T02:42:36;102820.10;;;10.48;100.00
55277;BME280;41136;51.478;-2.610;2023-02-04T02:45:02;102818.79;;;11.36;100.00
55277;BME280;41136;51.478;-2.610;2023-02-04T02:47:27;102822.09;;;11.96;100.00
55277;BME280;41136;51.478;-2.610;2023-02-04T02:49:52;102822.10;;;10.89;100.00
55277;BME280;41136;51.478;-2.610;2023-02-04T02:52:18;102821.19;;;11.19;100.00
55277;BME280;41136;51.478;-2.610;2023-02-04T02:54:43;102821.51;;;11.12;100.00
55277;BME280;41136;51.478;-2.610;2023-02-04T02:57:12;102820.60;;;11.28;100.00
55277;BME280;41136;51.478;-2.610;2023-02-04T02:59:34;102823.93;;;10.89;100.00
55277;BME280;41136;51.478;-2.610;2023-02-04T03:02:01;102821.55;;;10.68;100.00
55277;BME280;41136;51.478;-2.610;2023-02-04T03:04:25;102824.39;;;11.10;100.00
55277;BME280;41136;51.478;-2.610;2023-02-04T03:06:50;102826.77;;;11.12;100.00
55277;BME280;41136;51.478;-2.610;2023-02-04T03:09:15;102827.11;;;10.76;100.00
55277;BME280;41136;51.478;-2.610;2023-02-04T03:11:40;102824.60;;;10.76;100.00
55277;BME280;41136;51.478;-2.610;2023-02-04T03:14:06;102827.26;;;10.75;100.00
55277;BME280;41136;51.478;-2.610;2023-02-04T03:16:33;102823.25;;;10.86;100.00
55277;BME280;41136;51.478;-2.610;2023-02-04T03:18:56;102825.09;;;11.00;100.00
55277;BME280;41136;51.478;-2.610;2023-02-04T03:21:22;102824.10;;;10.29;100.00
55277;BME280;41136;51.478;-2.610;2023-02-04T03:23:47;102818.68;;;10.12;100.00
55277;BME280;41136;51.478;-2.610;2023-02-04T03:26:12;102821.54;;;10.76;100.00
55277;BME280;41136;51.478;-2.610;2023-02-04T03:28:39;102820.66;;;10.56;100.00
55277;BME280;41136;51.478;-2.610;2023-02-04T03:31:03;102818.95;;;10.56;100.00
55277;BME280;41136;51.478;-2.610;2023-02-04T03:33:28;102816.95;;;10.30;100.00
55277;BME280;41136;51.478;-2.610;2023-02-04T03:35:54;102817.76;;;10.38;100.00
55277;BME280;41136;51.478;-2.610;2023-02-04T03:38:19;102818.35;;;10.51;100.00
55277;BME280;41136;51.478;-2.610;2023-02-04T03:40:45;102815.78;;;9.85;100.00
55277;BME280;41136;51.478;-2.610;2023-02-04T03:43:10;102819.83;;;9.74;100.00
55277;BME280;41136;51.478;-2.610;2023-02-04T03:45:35;102818.32;;;10.14;100.00
55277;BME280;41136;51.478;-2.610;2023-02-04T03:48:01;102818.55;;;10.13;100.00
55277;BME280;41136;51.478;-2.610;2023-02-04T03:50:26;102821.66;;;10.35;100.00
55277;BME280;41136;51.478;-2.610;2023-02-04T03:52:51;102824.47;;;10.41;100.00
55277;BME280;41136;51.478;-2.610;2023-02-04T03:55:17;102824.32;;;10.20;100.00
55277;BME280;41136;51.478;-2.610;2023-02-04T03:57:42;102825.68;;;10.58;100.00
55277;BME280;41136;51.478;-2.610;2023-02-04T04:00:09;102826.01;;;10.74;100.00
55277;BME280;41136;51.478;-2.610;2023-02-04T04:02:33;102830.36;;;10.06;100.00
55277;BME280;41136;51.478;-2.610;2023-02-04T04:04:58;102831.63;;;10.27;100.00
55277;BME280;41136;51.478;-2.610;2023-02-04T04:07:25;102840.00;;;10.66;100.00
55277;BME280;41136;51.478;-2.610;2023-02-04T04:09:49;102836.38;;;10.79;100.00
55277;BME280;41136;51.478;-2.610;2023-02-04T04:12:14;102836.37;;;10.92;100.00
55277;BME280;41136;51.478;-2.610;2023-02-04T04:14:40;102837.72;;;9.92;100.00
55277;BME280;41136;51.478;-2.610;2023-02-04T04:17:05;102835.44;;;10.11;100.00
55277;BME280;41136;51.478;-2.610;2023-02-04T04:19:30;102833.33;;;10.07;100.00
55277;BME280;41136;51.478;-2.610;2023-02-04T04:21:56;102832.75;;;10.06;100.00
55277;BME280;41136;51.478;-2.610;2023-02-04T04:24:21;102832.75;;;10.11;100.00
55277;BME280;41136;51.478;-2.610;2023-02-04T04:26:46;102832.26;;;10.31;100.00
55277;BME280;41136;51.478;-2.610;2023-02-04T04:29:12;102835.66;;;10.32;100.00
55277;BME280;41136;51.478;-2.610;2023-02-04T04:31:37;102835.16;;;9.92;100.00
55277;BME280;41136;51.478;-2.610;2023-02-04T04:34:02;102834.99;;;10.33;100.00
55277;BME280;41136;51.478;-2.610;2023-02-04T04:36:28;102837.57;;;10.33;100.00
55277;BME280;41136;51.478;-2.610;2023-02-04T04:38:53;102838.58;;;9.39;100.00
55277;BME280;41136;51.478;-2.610;2023-02-04T04:41:18;102834.14;;;9.97;100.00
55277;BME280;41136;51.478;-2.610;2023-02-04T04:43:44;102834.14;;;9.91;100.00
55277;BME280;41136;51.478;-2.610;2023-02-04T04:46:09;102842.93;;;9.72;100.00
55277;BME280;41136;51.478;-2.610;2023-02-04T04:48:35;102845.65;;;9.80;100.00
55277;BME280;41136;51.478;-2.610;2023-02-04T04:51:00;102847.86;;;10.32;100.00
55277;BME280;41136;51.478;-2.610;2023-02-04T04:53:25;102851.02;;;10.15;100.00
55277;BME280;41136;51.478;-2.610;2023-02-04T04:55:51;102851.36;;;10.37;100.00
55277;BME280;41136;51.478;-2.610;2023-02-04T04:58:16;102855.03;;;9.82;100.00
55277;BME280;41136;51.478;-2.610;2023-02-04T05:00:46;102852.48;;;9.59;100.00
55277;BME280;41136;51.478;-2.610;2023-02-04T05:03:07;102849.96;;;9.34;100.00
55277;BME280;41136;51.478;-2.610;2023-02-04T05:05:32;102846.06;;;9.99;100.00
55277;BME280;41136;51.478;-2.610;2023-02-04T05:07:57;102842.09;;;10.70;100.00
55277;BME280;41136;51.478;-2.610;2023-02-04T05:10:24;102847.27;;;9.78;100.00
55277;BME280;41136;51.478;-2.610;2023-02-04T05:12:48;102848.80;;;11.10;100.00
55277;BME280;41136;51.478;-2.610;2023-02-04T05:17:21;102846.40;;;10.07;100.00
55277;BME280;41136;51.478;-2.610;2023-02-04T05:19:46;102843.76;;;9.96;100.00
55277;BME280;41136;51.478;-2.610;2023-02-04T05:22:11;102845.02;;;9.78;100.00
55277;BME280;41136;51.478;-2.610;2023-02-04T05:24:37;102845.04;;;9.78;100.00
55277;BME280;41136;51.478;-2.610;2023-02-04T05:27:02;102849.05;;;10.50;100.00
55277;BME280;41136;51.478;-2.610;2023-02-04T05:29:27;102852.60;;;10.47;100.00
55277;BME280;41136;51.478;-2.610;2023-02-04T05:31:53;102850.25;;;10.30;100.00
55277;BME280;41136;51.478;-2.610;2023-02-04T05:34:18;102848.87;;;10.98;100.00
55277;BME280;41136;51.478;-2.610;2023-02-04T05:36:44;102845.77;;;10.47;100.00
55277;BME280;41136;51.478;-2.610;2023-02-04T05:39:09;102846.37;;;10.30;100.00
55277;BME280;41136;51.478;-2.610;2023-02-04T05:41:34;102847.79;;;10.14;100.00
55277;BME280;41136;51.478;-2.610;2023-02-04T05:44:00;102849.47;;;10.50;100.00
55277;BME280;41136;51.478;-2.610;2023-02-04T05:46:25;102849.40;;;10.09;100.00
55277;BME280;41136;51.478;-2.610;2023-02-04T05:48:50;102852.17;;;10.03;100.00
55277;BME280;41136;51.478;-2.610;2023-02-04T05:51:16;102850.48;;;10.86;100.00
55277;BME280;41136;51.478;-2.610;2023-02-04T05:53:41;102850.27;;;10.26;100.00
55277;BME280;41136;51.478;-2.610;2023-02-04T05:56:06;102854.93;;;9.92;100.00
55277;BME280;41136;51.478;-2.610;2023-02-04T05:58:32;102856.30;;;9.81;100.00
55277;BME280;41136;51.478;-2.610;2023-02-04T06:00:57;102858.36;;;9.99;100.00
55277;BME280;41136;51.478;-2.610;2023-02-04T06:03:22;102860.58;;;9.81;100.00
55277;BME280;41136;51.478;-2.610;2023-02-04T06:05:48;102861.50;;;10.16;100.00
55277;BME280;41136;51.478;-2.610;2023-02-04T06:08:13;102862.95;;;9.48;100.00
55277;BME280;41136;51.478;-2.610;2023-02-04T06:10:38;102860.97;;;9.78;100.00
55277;BME280;41136;51.478;-2.610;2023-02-04T06:13:04;102861.66;;;9.74;100.00
55277;BME280;41136;51.478;-2.610;2023-02-04T06:15:29;102863.27;;;9.80;100.00
55277;BME280;41136;51.478;-2.610;2023-02-04T06:17:54;102865.43;;;10.00;100.00
55277;BME280;41136;51.478;-2.610;2023-02-04T06:20:20;102865.11;;;10.41;100.00
55277;BME280;41136;51.478;-2.610;2023-02-04T06:22:45;102863.91;;;9.97;100.00
55277;BME280;41136;51.478;-2.610;2023-02-04T06:25:11;102868.36;;;9.39;100.00
55277;BME280;41136;51.478;-2.610;2023-02-04T06:27:36;102869.51;;;10.29;100.00
55277;BME280;41136;51.478;-2.610;2023-02-04T06:30:02;102871.11;;;9.77;100.00
55277;BME280;41136;51.478;-2.610;2023-02-04T06:32:27;102873.63;;;10.33;100.00
55277;BME280;41136;51.478;-2.610;2023-02-04T06:34:52;102871.30;;;10.77;100.00
55277;BME280;41136;51.478;-2.610;2023-02-04T06:37:17;102874.46;;;11.12;100.00
55277;BME280;41136;51.478;-2.610;2023-02-04T06:39:43;102875.56;;;10.38;100.00
55277;BME280;41136;51.478;-2.610;2023-02-04T06:42:08;102883.51;;;10.12;100.00
55277;BME280;41136;51.478;-2.610;2023-02-04T06:44:34;102881.42;;;9.99;100.00
55277;BME280;41136;51.478;-2.610;2023-02-04T06:46:59;102880.30;;;10.47;100.00
55277;BME280;41136;51.478;-2.610;2023-02-04T06:49:24;102879.25;;;11.04;100.00
55277;BME280;41136;51.478;-2.610;2023-02-04T06:51:50;102885.02;;;10.09;100.00
55277;BME280;41136;51.478;-2.610;2023-02-04T06:54:15;102884.20;;;10.28;100.00
55277;BME280;41136;51.478;-2.610;2023-02-04T06:56:40;102880.53;;;10.72;100.00
55277;BME280;41136;51.478;-2.610;2023-02-04T06:59:06;102885.16;;;11.11;100.00
55277;BME280;41136;51.478;-2.610;2023-02-04T07:01:31;102885.02;;;11.08;99.22
55277;BME280;41136;51.478;-2.610;2023-02-04T07:03:56;102885.72;;;11.13;98.88
55277;BME280;41136;51.478;-2.610;2023-02-04T07:06:22;102885.92;;;11.55;98.71
55277;BME280;41136;51.478;-2.610;2023-02-04T07:08:47;102884.06;;;11.55;97.57
55277;BME280;41136;51.478;-2.610;2023-02-04T07:11:12;102884.07;;;11.52;97.20
55277;BME280;41136;51.478;-2.610;2023-02-04T07:13:38;102882.72;;;11.23;96.99
55277;BME280;41136;51.478;-2.610;2023-02-04T07:16:03;102886.11;;;11.87;96.48
55277;BME280;41136;51.478;-2.610;2023-02-04T07:18:29;102886.23;;;11.43;96.68
55277;BME280;41136;51.478;-2.610;2023-02-04T07:20:54;102885.54;;;10.98;99.24
55277;BME280;41136;51.478;-2.610;2023-02-04T07:23:19;102883.32;;;11.20;98.98
55277;BME280;41136;51.478;-2.610;2023-02-04T07:25:45;102884.99;;;11.31;98.25
55277;BME280;41136;51.478;-2.610;2023-02-04T07:28:10;102878.97;;;11.99;96.53
55277;BME280;41136;51.478;-2.610;2023-02-04T07:30:35;102885.69;;;11.61;96.65
55277;BME280;41136;51.478;-2.610;2023-02-04T07:33:01;102890.18;;;11.16;98.92
55277;BME280;41136;51.478;-2.610;2023-02-04T07:35:26;102892.15;;;11.45;97.83
55277;BME280;41136;51.478;-2.610;2023-02-04T07:37:52;102892.27;;;10.71;98.67
55277;BME280;41136;51.478;-2.610;2023-02-04T07:40:17;102899.04;;;11.15;99.24
55277;BME280;41136;51.478;-2.610;2023-02-04T07:42:42;102900.36;;;11.24;99.01
55277;BME280;41136;51.478;-2.610;2023-02-04T07:45:08;102900.79;;;10.75;100.00
55277;BME280;41136;51.478;-2.610;2023-02-04T07:47:33;102902.75;;;9.97;100.00
55277;BME280;41136;51.478;-2.610;2023-02-04T07:49:58;102902.63;;;10.04;99.57
55277;BME280;41136;51.478;-2.610;2023-02-04T07:52:24;102901.67;;;10.00;100.00
55277;BME280;41136;51.478;-2.610;2023-02-04T07:54:49;102897.97;;;10.70;98.09
55277;BME280;41136;51.478;-2.610;2023-02-04T07:57:14;102902.45;;;10.66;98.38
55277;BME280;41136;51.478;-2.610;2023-02-04T07:59:40;102905.43;;;10.16;99.45
55277;BME280;41136;51.478;-2.610;2023-02-04T08:02:06;102907.32;;;9.68;98.25
55277;BME280;41136;51.478;-2.610;2023-02-04T08:04:30;102902.02;;;10.00;97.62
55277;BME280;41136;51.478;-2.610;2023-02-04T08:06:56;102908.82;;;10.68;96.72
55277;BME280;41136;51.478;-2.610;2023-02-04T08:09:21;102906.85;;;10.96;95.44
55277;BME280;41136;51.478;-2.610;2023-02-04T08:11:48;102916.20;;;10.35;96.29
55277;BME280;41136;51.478;-2.610;2023-02-04T08:14:12;102917.42;;;10.68;95.40
55277;BME280;41136;51.478;-2.610;2023-02-04T08:16:38;102919.46;;;11.04;94.01
55277;BME280;41136;51.478;-2.610;2023-02-04T08:19:03;102924.42;;;10.91;94.23
55277;BME280;41136;51.478;-2.610;2023-02-04T08:21:28;102925.49;;;11.54;93.73
55277;BME280;41136;51.478;-2.610;2023-02-04T08:23:53;102925.12;;;11.56;93.12
55277;BME280;41136;51.478;-2.610;2023-02-04T08:26:19;102927.57;;;11.46;93.10
55277;BME280;41136;51.478;-2.610;2023-02-04T08:28:44;102933.06;;;10.95;94.19
55277;BME280;41136;51.478;-2.610;2023-02-04T08:31:09;102937.77;;;9.45;97.19
55277;BME280;41136;51.478;-2.610;2023-02-04T08:33:35;102938.98;;;10.14;97.73
55277;BME280;41136;51.478;-2.610;2023-02-04T08:36:00;102941.39;;;10.13;97.15
55277;BME280;41136;51.478;-2.610;2023-02-04T08:38:25;102939.03;;;9.97;96.98
55277;BME280;41136;51.478;-2.610;2023-02-04T08:40:51;102933.01;;;10.95;96.02
55277;BME280;41136;51.478;-2.610;2023-02-04T08:43:16;102929.78;;;11.24;95.50
55277;BME280;41136;51.478;-2.610;2023-02-04T08:45:42;102935.23;;;10.66;96.05
55277;BME280;41136;51.478;-2.610;2023-02-04T08:48:07;102940.60;;;10.26;96.10
55277;BME280;41136;51.478;-2.610;2023-02-04T08:50:32;102945.58;;;10.84;96.27
55277;BME280;41136;51.478;-2.610;2023-02-04T08:52:58;102945.59;;;11.00;96.26
55277;BME280;41136;51.478;-2.610;2023-02-04T08:55:23;102956.34;;;10.88;96.48
55277;BME280;41136;51.478;-2.610;2023-02-04T08:57:48;102962.18;;;10.56;96.58
55277;BME280;41136;51.478;-2.610;2023-02-04T09:00:14;102960.07;;;10.71;97.02
55277;BME280;41136;51.478;-2.610;2023-02-04T09:02:39;102962.56;;;10.46;96.04
55277;BME280;41136;51.478;-2.610;2023-02-04T09:05:05;102963.29;;;10.62;96.53
55277;BME280;41136;51.478;-2.610;2023-02-04T09:07:30;102968.63;;;10.18;97.80
55277;BME280;41136;51.478;-2.610;2023-02-04T09:09:55;102961.88;;;11.76;95.06
55277;BME280;41136;51.478;-2.610;2023-02-04T09:12:20;102965.41;;;10.32;96.62
55277;BME280;41136;51.478;-2.610;2023-02-04T09:14:46;102967.15;;;10.37;97.54
55277;BME280;41136;51.478;-2.610;2023-02-04T09:17:11;102965.54;;;10.46;95.97
55277;BME280;41136;51.478;-2.610;2023-02-04T09:19:36;102959.44;;;11.08;96.73
55277;BME280;41136;51.478;-2.610;2023-02-04T09:22:02;102963.48;;;10.85;95.71
55277;BME280;41136;51.478;-2.610;2023-02-04T09:24:27;102966.08;;;10.90;94.89
55277;BME280;41136;51.478;-2.610;2023-02-04T09:26:52;102964.06;;;11.11;94.50
55277;BME280;41136;51.478;-2.610;2023-02-04T09:29:18;102967.90;;;11.00;94.40
55277;BME280;41136;51.478;-2.610;2023-02-04T09:31:43;102970.15;;;11.04;94.59
55277;BME280;41136;51.478;-2.610;2023-02-04T09:34:08;102969.31;;;11.84;93.52
55277;BME280;41136;51.478;-2.610;2023-02-04T09:36:34;102970.50;;;11.81;93.97
55277;BME280;41136;51.478;-2.610;2023-02-04T09:38:59;102969.60;;;11.19;93.88
55277;BME280;41136;51.478;-2.610;2023-02-04T09:41:25;102968.93;;;11.64;93.79
55277;BME280;41136;51.478;-2.610;2023-02-04T09:43:50;102974.67;;;11.16;94.43
55277;BME280;41136;51.478;-2.610;2023-02-04T09:46:20;102964.81;;;11.62;93.34
55277;BME280;41136;51.478;-2.610;2023-02-04T09:48:41;102962.04;;;11.69;92.53
55277;BME280;41136;51.478;-2.610;2023-02-04T09:51:07;102961.98;;;11.72;91.76
55277;BME280;41136;51.478;-2.610;2023-02-04T09:53:32;102966.72;;;11.45;92.36
55277;BME280;41136;51.478;-2.610;2023-02-04T09:55:57;102965.96;;;11.30;92.16
55277;BME280;41136;51.478;-2.610;2023-02-04T09:58:23;102965.91;;;11.20;92.90
55277;BME280;41136;51.478;-2.610;2023-02-04T10:00:51;102966.28;;;11.28;92.74
55277;BME280;41136;51.478;-2.610;2023-02-04T10:03:15;102972.46;;;11.42;91.89
55277;BME280;41136;51.478;-2.610;2023-02-04T10:05:38;102976.60;;;11.49;91.79
55277;BME280;41136;51.478;-2.610;2023-02-04T10:08:04;102983.05;;;11.15;91.44
55277;BME280;41136;51.478;-2.610;2023-02-04T10:10:29;102985.74;;;12.26;91.27
55277;BME280;41136;51.478;-2.610;2023-02-04T10:12:57;102980.86;;;11.86;90.85
55277;BME280;41136;51.478;-2.610;2023-02-04T10:15:20;102981.70;;;11.16;91.38
55277;BME280;41136;51.478;-2.610;2023-02-04T10:17:45;102986.64;;;10.96;90.78
55277;BME280;41136;51.478;-2.610;2023-02-04T10:22:37;102992.05;;;11.31;89.75
55277;BME280;41136;51.478;-2.610;2023-02-04T10:25:04;102991.11;;;11.43;89.40
55277;BME280;41136;51.478;-2.610;2023-02-04T10:27:27;102989.19;;;11.49;89.22
55277;BME280;41136;51.478;-2.610;2023-02-04T10:29:55;102986.24;;;11.58;89.10
55277;BME280;41136;51.478;-2.610;2023-02-04T10:32:24;102988.40;;;12.28;86.29
55277;BME280;41136;51.478;-2.610;2023-02-04T10:34:43;102982.55;;;11.67;86.56
55277;BME280;41136;51.478;-2.610;2023-02-04T10:37:16;102982.55;;;11.50;89.15
55277;BME280;41136;51.478;-2.610;2023-02-04T10:39:41;102978.61;;;12.73;86.37
55277;BME280;41136;51.478;-2.610;2023-02-04T10:42:00;102984.30;;;12.07;87.98
55277;BME280;41136;51.478;-2.610;2023-02-04T10:44:26;102987.71;;;11.65;88.30
55277;BME280;41136;51.478;-2.610;2023-02-04T10:46:56;102993.29;;;11.75;86.67
55277;BME280;41136;51.478;-2.610;2023-02-04T10:49:18;102996.46;;;11.81;89.27
55277;BME280;41136;51.478;-2.610;2023-02-04T10:51:40;102995.92;;;12.01;85.36
55277;BME280;41136;51.478;-2.610;2023-02-04T10:54:11;102989.75;;;13.20;81.59
55277;BME280;41136;51.478;-2.610;2023-02-04T10:56:31;102985.90;;;12.55;82.82
55277;BME280;41136;51.478;-2.610;2023-02-04T10:58:56;102987.57;;;13.21;82.32
55277;BME280;41136;51.478;-2.610;2023-02-04T11:01:23;102989.52;;;12.98;83.05
55277;BME280;41136;51.478;-2.610;2023-02-04T11:03:47;102992.80;;;13.17;81.36
55277;BME280;41136;51.478;-2.610;2023-02-04T11:06:14;102992.84;;;12.49;82.83
55277;BME280;41136;51.478;-2.610;2023-02-04T11:08:38;102994.35;;;12.67;84.55
55277;BME280;41136;51.478;-2.610;2023-02-04T11:11:05;102995.67;;;12.82;82.28
55277;BME280;41136;51.478;-2.610;2023-02-04T11:18:26;103005.86;;;12.27;89.24
55277;BME280;41136;51.478;-2.610;2023-02-04T11:20:45;103002.48;;;12.88;86.31
55277;BME280;41136;51.478;-2.610;2023-02-04T11:23:16;103002.09;;;13.05;83.73
55277;BME280;41136;51.478;-2.610;2023-02-04T11:25:36;103002.60;;;11.75;87.48
55277;BME280;41136;51.478;-2.610;2023-02-04T11:30:32;102991.76;;;11.77;88.63
55277;BME280;41136;51.478;-2.610;2023-02-04T11:32:55;102987.95;;;12.25;86.97
55277;BME280;41136;51.478;-2.610;2023-02-04T11:35:23;102987.73;;;12.15;86.11
55277;BME280;41136;51.478;-2.610;2023-02-04T11:37:42;102990.25;;;12.46;85.77
55277;BME280;41136;51.478;-2.610;2023-02-04T11:42:39;102981.99;;;13.42;83.78
55277;BME280;41136;51.478;-2.610;2023-02-04T11:45:00;102979.79;;;13.69;81.98
55277;BME280;41136;51.478;-2.610;2023-02-04T11:47:26;102979.18;;;14.12;81.75
55277;BME280;41136;51.478;-2.610;2023-02-04T11:49:55;102978.30;;;13.67;81.26
55277;BME280;41136;51.478;-2.610;2023-02-04T11:52:14;102978.41;;;13.14;81.50
55277;BME280;41136;51.478;-2.610;2023-02-04T11:54:39;102980.81;;;13.60;81.36
55277;BME280;41136;51.478;-2.610;2023-02-04T11:57:05;102978.93;;;12.55;83.89
55277;BME280;41136;51.478;-2.610;2023-02-04T11:59:30;102982.22;;;12.61;83.63
55277;BME280;41136;51.478;-2.610;2023-02-04T12:02:12;102980.93;;;13.34;82.40
55277;BME280;41136;51.478;-2.610;2023-02-04T12:04:22;102977.24;;;13.95;78.69
55277;BME280;41136;51.478;-2.610;2023-02-04T12:09:22;102976.79;;;12.42;83.87
55277;BME280;41136;51.478;-2.610;2023-02-04T12:11:37;102974.76;;;12.64;84.55
55277;BME280;41136;51.478;-2.610;2023-02-04T12:14:09;102978.77;;;12.42;85.57
55277;BME280;41136;51.478;-2.610;2023-02-04T12:16:28;102981.55;;;12.39;85.10
55277;BME280;41136;51.478;-2.610;2023-02-04T12:18:53;102984.20;;;12.37;84.69
55277;BME280;41136;51.478;-2.610;2023-02-04T12:21:19;102985.66;;;12.53;83.85
55277;BME280;41136;51.478;-2.610;2023-02-04T12:23:44;102983.25;;;12.62;83.52
55277;BME280;41136;51.478;-2.610;2023-02-04T12:26:09;102984.40;;;12.56;83.28
55277;BME280;41136;51.478;-2.610;2023-02-04T12:28:35;102988.90;;;12.26;84.06
55277;BME280;41136;51.478;-2.610;2023-02-04T12:31:01;102987.45;;;13.19;83.65
55277;BME280;41136;51.478;-2.610;2023-02-04T12:33:27;102984.08;;;13.31;82.47
55277;BME280;41136;51.478;-2.610;2023-02-04T12:35:51;102982.52;;;13.35;80.98
55277;BME280;41136;51.478;-2.610;2023-02-04T12:38:17;102984.05;;;12.61;81.73
55277;BME280;41136;51.478;-2.610;2023-02-04T12:40:41;102980.35;;;13.47;80.45
55277;BME280;41136;51.478;-2.610;2023-02-04T12:43:07;102982.83;;;13.81;80.07
55277;BME280;41136;51.478;-2.610;2023-02-04T12:45:32;102982.22;;;12.87;82.37